Página principal
METAR-TAF:

METAR-TAF

Aeroportos :

N'Djamena, Chade

Aeroporto Internacional de N'Djamena

latitude: 12-08N, longitude: 015-02E, altura: 295 m

Observação actual do tempo

O boletim foi feito há 1 hora e 5 minutos, às 14:00 UTC
Vento 11 kt de nordeste
Temperatura 31°C
Humidade 8%
Pressão 1012 hPa
Visibilidade: 4200 m
poeira extensa

METAR: FTTJ 161400Z 04011KT 4200 DU NSC 31/M07 Q1012 NOSIG

Hora: 16:05 (15:05 UTC)

Previsão

O boletim foi feito há 4 horas e 5 minutos, às 11:00 UTC
Previsão válida de 16 às 12 UTC a 17 às 18 UTC
Vento 10 kt de es-nordeste
Visibilidade: 4000 m
poeira extensa
Tornando-se
de 16 às 18 UTC a 16 às 20 UTC
Vento 6 kt de nor-nordeste
Visibilidade: 2500 m

TAF: FTTJ 161100Z 1612/1718 06010KT 4000 DU NSC BECMG 1618/1620 02006KT 2500

Observações e previsões do tempo de mais de 4000 aeroportos (mensagens METAR e TAF).

As estações disponíveis são os pontos amarelos e vermelhos sobre o mapa.

Mova o rato sobre o mapa para ver o nome da estação.

Depois clique no ponto para visualizar as observações e previsões meteorológicas.

Para alterar o mapa : clique nos botões verdes com uma cruz preta para aumentar o zoom; no botão verde com uma pitada de zoom; ou nas setas verdes para mapas adjacentes.


METAR-TAF: